sensor_id;sensor_type;location;lat;lon;timestamp;temperature;humidity
1948;DHT22;974;52.400;9.818;2023-02-14T00:01:17;2.10;99.90
1948;DHT22;974;52.400;9.818;2023-02-14T00:03:42;2.10;99.90
1948;DHT22;974;52.400;9.818;2023-02-14T00:06:13;2.10;99.90
1948;DHT22;974;52.400;9.818;2023-02-14T00:08:39;2.10;99.90
1948;DHT22;974;52.400;9.818;2023-02-14T00:11:05;2.00;99.90
1948;DHT22;974;52.400;9.818;2023-02-14T00:13:32;2.00;99.90
1948;DHT22;974;52.400;9.818;2023-02-14T00:15:58;1.90;99.90
1948;DHT22;974;52.400;9.818;2023-02-14T00:18:23;2.00;99.90
1948;DHT22;974;52.400;9.818;2023-02-14T00:21:09;2.00;99.90
1948;DHT22;974;52.400;9.818;2023-02-14T00:23:34;2.00;99.90
1948;DHT22;974;52.400;9.818;2023-02-14T00:26:00;1.90;99.90
1948;DHT22;974;52.400;9.818;2023-02-14T00:28:25;1.90;99.90
1948;DHT22;974;52.400;9.818;2023-02-14T00:30:51;1.90;99.90
1948;DHT22;974;52.400;9.818;2023-02-14T00:33:16;1.90;99.90
1948;DHT22;974;52.400;9.818;2023-02-14T00:35:42;1.80;99.90
1948;DHT22;974;52.400;9.818;2023-02-14T00:38:07;1.80;99.90
1948;DHT22;974;52.400;9.818;2023-02-14T00:40:32;1.90;99.90
1948;DHT22;974;52.400;9.818;2023-02-14T00:42:58;1.80;99.90
1948;DHT22;974;52.400;9.818;2023-02-14T00:45:23;1.70;99.90
1948;DHT22;974;52.400;9.818;2023-02-14T00:47:49;1.80;99.90
1948;DHT22;974;52.400;9.818;2023-02-14T00:50:15;1.80;99.90
1948;DHT22;974;52.400;9.818;2023-02-14T00:52:40;1.80;99.90
1948;DHT22;974;52.400;9.818;2023-02-14T00:55:06;1.70;99.90
1948;DHT22;974;52.400;9.818;2023-02-14T00:57:31;1.80;99.90
1948;DHT22;974;52.400;9.818;2023-02-14T00:59:57;1.70;99.90
1948;DHT22;974;52.400;9.818;2023-02-14T01:02:22;1.80;99.90
1948;DHT22;974;52.400;9.818;2023-02-14T01:04:47;1.60;99.90
1948;DHT22;974;52.400;9.818;2023-02-14T01:07:13;1.70;99.90
1948;DHT22;974;52.400;9.818;2023-02-14T01:09:38;1.60;99.90
1948;DHT22;974;52.400;9.818;2023-02-14T01:12:04;1.70;99.90
1948;DHT22;974;52.400;9.818;2023-02-14T01:14:30;1.60;99.90
1948;DHT22;974;52.400;9.818;2023-02-14T01:16:55;1.60;99.90
1948;DHT22;974;52.400;9.818;2023-02-14T01:19:21;1.60;99.90
1948;DHT22;974;52.400;9.818;2023-02-14T01:21:46;1.60;99.90
1948;DHT22;974;52.400;9.818;2023-02-14T01:24:11;1.60;99.90
1948;DHT22;974;52.400;9.818;2023-02-14T01:26:38;1.70;99.90
1948;DHT22;974;52.400;9.818;2023-02-14T01:29:04;1.50;99.90
1948;DHT22;974;52.400;9.818;2023-02-14T01:31:32;1.60;99.90
1948;DHT22;974;52.400;9.818;2023-02-14T01:33:58;1.60;99.90
1948;DHT22;974;52.400;9.818;2023-02-14T01:36:29;1.60;99.90
1948;DHT22;974;52.400;9.818;2023-02-14T01:38:57;1.60;99.90
1948;DHT22;974;52.400;9.818;2023-02-14T01:41:24;1.50;99.90
1948;DHT22;974;52.400;9.818;2023-02-14T01:46:40;1.60;99.90
1948;DHT22;974;52.400;9.818;2023-02-14T01:49:28;1.50;99.90
1948;DHT22;974;52.400;9.818;2023-02-14T01:52:05;1.60;99.90
1948;DHT22;974;52.400;9.818;2023-02-14T01:54:35;1.60;99.90
1948;DHT22;974;52.400;9.818;2023-02-14T01:57:06;1.60;99.90
1948;DHT22;974;52.400;9.818;2023-02-14T01:59:36;1.50;99.90
1948;DHT22;974;52.400;9.818;2023-02-14T02:02:04;1.50;99.90
1948;DHT22;974;52.400;9.818;2023-02-14T02:04:34;1.50;99.90
1948;DHT22;974;52.400;9.818;2023-02-14T02:07:04;1.60;99.90
1948;DHT22;974;52.400;9.818;2023-02-14T02:09:49;1.50;99.90
1948;DHT22;974;52.400;9.818;2023-02-14T02:12:16;1.50;99.90
1948;DHT22;974;52.400;9.818;2023-02-14T02:14:42;1.40;99.90
1948;DHT22;974;52.400;9.818;2023-02-14T02:17:17;1.40;99.90
1948;DHT22;974;52.400;9.818;2023-02-14T02:31:10;1.40;99.90
1948;DHT22;974;52.400;9.818;2023-02-14T02:37:01;1.30;99.90
1948;DHT22;974;52.400;9.818;2023-02-14T02:44:55;1.30;99.90
1948;DHT22;974;52.400;9.818;2023-02-14T02:47:32;1.30;99.90
1948;DHT22;974;52.400;9.818;2023-02-14T02:53:38;1.10;99.90
1948;DHT22;974;52.400;9.818;2023-02-14T02:56:13;1.20;99.90
1948;DHT22;974;52.400;9.818;2023-02-14T02:59:00;1.20;99.90
1948;DHT22;974;52.400;9.818;2023-02-14T03:01:33;1.20;99.90
1948;DHT22;974;52.400;9.818;2023-02-14T03:04:02;1.20;99.90
1948;DHT22;974;52.400;9.818;2023-02-14T03:06:48;1.10;99.90
1948;DHT22;974;52.400;9.818;2023-02-14T03:11:52;1.10;99.90
1948;DHT22;974;52.400;9.818;2023-02-14T03:14:43;1.20;99.90
1948;DHT22;974;52.400;9.818;2023-02-14T03:20:52;1.20;99.90
1948;DHT22;974;52.400;9.818;2023-02-14T03:23:22;1.10;99.90
1948;DHT22;974;52.400;9.818;2023-02-14T03:26:20;1.10;99.90
1948;DHT22;974;52.400;9.818;2023-02-14T03:31:37;1.10;99.90
1948;DHT22;974;52.400;9.818;2023-02-14T03:36:43;1.10;99.90
1948;DHT22;974;52.400;9.818;2023-02-14T03:39:46;1.10;99.90
1948;DHT22;974;52.400;9.818;2023-02-14T03:42:22;1.10;99.90
1948;DHT22;974;52.400;9.818;2023-02-14T03:44:49;1.10;99.90
1948;DHT22;974;52.400;9.818;2023-02-14T03:47:19;1.20;99.90
1948;DHT22;974;52.400;9.818;2023-02-14T03:49:58;1.10;99.90
1948;DHT22;974;52.400;9.818;2023-02-14T03:52:28;1.10;99.90
1948;DHT22;974;52.400;9.818;2023-02-14T03:54:56;1.10;99.90
1948;DHT22;974;52.400;9.818;2023-02-14T03:57:24;1.10;99.90
1948;DHT22;974;52.400;9.818;2023-02-14T03:59:52;1.10;99.90
1948;DHT22;974;52.400;9.818;2023-02-14T04:02:23;1.10;99.90
1948;DHT22;974;52.400;9.818;2023-02-14T04:04:50;1.10;99.90
1948;DHT22;974;52.400;9.818;2023-02-14T04:07:21;1.10;99.90
1948;DHT22;974;52.400;9.818;2023-02-14T04:09:47;1.20;99.90
1948;DHT22;974;52.400;9.818;2023-02-14T04:12:14;1.20;99.90
1948;DHT22;974;52.400;9.818;2023-02-14T04:14:40;1.30;99.90
1948;DHT22;974;52.400;9.818;2023-02-14T04:17:06;1.30;99.90
1948;DHT22;974;52.400;9.818;2023-02-14T04:19:50;1.20;99.90
1948;DHT22;974;52.400;9.818;2023-02-14T04:22:16;1.20;99.90
1948;DHT22;974;52.400;9.818;2023-02-14T04:24:41;1.20;99.90
1948;DHT22;974;52.400;9.818;2023-02-14T04:27:07;1.20;99.90
1948;DHT22;974;52.400;9.818;2023-02-14T04:29:46;1.20;99.90
1948;DHT22;974;52.400;9.818;2023-02-14T04:32:15;1.10;99.90
1948;DHT22;974;52.400;9.818;2023-02-14T04:34:41;1.10;99.90
1948;DHT22;974;52.400;9.818;2023-02-14T04:37:07;1.10;99.90
1948;DHT22;974;52.400;9.818;2023-02-14T04:39:33;1.10;99.90
1948;DHT22;974;52.400;9.818;2023-02-14T04:41:59;1.20;99.90
1948;DHT22;974;52.400;9.818;2023-02-14T04:44:25;1.10;99.90
1948;DHT22;974;52.400;9.818;2023-02-14T04:46:50;1.20;99.90
1948;DHT22;974;52.400;9.818;2023-02-14T04:49:16;1.30;99.90
1948;DHT22;974;52.400;9.818;2023-02-14T04:51:42;1.40;99.90
1948;DHT22;974;52.400;9.818;2023-02-14T04:54:07;1.40;99.90
1948;DHT22;974;52.400;9.818;2023-02-14T04:56:33;1.60;99.90
1948;DHT22;974;52.400;9.818;2023-02-14T04:58:59;1.60;99.90
1948;DHT22;974;52.400;9.818;2023-02-14T05:01:24;1.70;99.90
1948;DHT22;974;52.400;9.818;2023-02-14T05:03:50;1.70;99.90
1948;DHT22;974;52.400;9.818;2023-02-14T05:06:15;1.80;99.90
1948;DHT22;974;52.400;9.818;2023-02-14T05:08:41;1.90;99.90
1948;DHT22;974;52.400;9.818;2023-02-14T05:11:06;1.90;99.90
1948;DHT22;974;52.400;9.818;2023-02-14T05:13:32;1.90;99.90
1948;DHT22;974;52.400;9.818;2023-02-14T05:15:58;1.90;99.90
1948;DHT22;974;52.400;9.818;2023-02-14T05:18:23;1.90;99.90
1948;DHT22;974;52.400;9.818;2023-02-14T05:20:53;1.90;99.90
1948;DHT22;974;52.400;9.818;2023-02-14T05:23:19;1.90;99.90
1948;DHT22;974;52.400;9.818;2023-02-14T05:25:49;1.90;99.90
1948;DHT22;974;52.400;9.818;2023-02-14T05:28:15;1.90;99.90
1948;DHT22;974;52.400;9.818;2023-02-14T05:30:41;1.90;99.90
1948;DHT22;974;52.400;9.818;2023-02-14T05:33:06;1.90;99.90
1948;DHT22;974;52.400;9.818;2023-02-14T05:35:32;1.90;99.90
1948;DHT22;974;52.400;9.818;2023-02-14T05:37:58;1.90;99.90
1948;DHT22;974;52.400;9.818;2023-02-14T05:40:24;1.90;99.90
1948;DHT22;974;52.400;9.818;2023-02-14T05:42:51;1.90;99.90
1948;DHT22;974;52.400;9.818;2023-02-14T05:45:17;1.80;99.90
1948;DHT22;974;52.400;9.818;2023-02-14T05:47:43;1.80;99.90
1948;DHT22;974;52.400;9.818;2023-02-14T05:50:08;1.80;99.90
1948;DHT22;974;52.400;9.818;2023-02-14T05:52:34;1.90;99.90
1948;DHT22;974;52.400;9.818;2023-02-14T05:55:00;1.80;99.90
1948;DHT22;974;52.400;9.818;2023-02-14T05:57:25;1.80;99.90
1948;DHT22;974;52.400;9.818;2023-02-14T05:59:51;1.80;99.90
1948;DHT22;974;52.400;9.818;2023-02-14T06:02:16;1.80;99.90
1948;DHT22;974;52.400;9.818;2023-02-14T06:04:41;1.80;99.90
1948;DHT22;974;52.400;9.818;2023-02-14T06:07:07;1.80;99.90
1948;DHT22;974;52.400;9.818;2023-02-14T06:09:32;1.80;99.90
1948;DHT22;974;52.400;9.818;2023-02-14T06:12:01;1.80;99.90
1948;DHT22;974;52.400;9.818;2023-02-14T06:14:26;1.80;99.90
1948;DHT22;974;52.400;9.818;2023-02-14T06:16:52;1.80;99.90
1948;DHT22;974;52.400;9.818;2023-02-14T06:19:17;1.80;99.90
1948;DHT22;974;52.400;9.818;2023-02-14T06:21:43;1.80;99.90
1948;DHT22;974;52.400;9.818;2023-02-14T06:24:08;1.80;99.90
1948;DHT22;974;52.400;9.818;2023-02-14T06:26:34;1.70;99.90
1948;DHT22;974;52.400;9.818;2023-02-14T06:29:01;1.80;99.90
1948;DHT22;974;52.400;9.818;2023-02-14T06:31:27;1.70;99.90
1948;DHT22;974;52.400;9.818;2023-02-14T06:33:53;1.70;99.90
1948;DHT22;974;52.400;9.818;2023-02-14T06:36:19;1.70;99.90
1948;DHT22;974;52.400;9.818;2023-02-14T06:38:45;1.70;99.90
1948;DHT22;974;52.400;9.818;2023-02-14T06:41:12;1.70;99.90
1948;DHT22;974;52.400;9.818;2023-02-14T06:43:39;1.60;99.90
1948;DHT22;974;52.400;9.818;2023-02-14T06:46:05;1.50;99.90
1948;DHT22;974;52.400;9.818;2023-02-14T06:48:31;1.60;99.90
1948;DHT22;974;52.400;9.818;2023-02-14T06:50:56;1.60;99.90
1948;DHT22;974;52.400;9.818;2023-02-14T06:53:22;1.50;99.90
1948;DHT22;974;52.400;9.818;2023-02-14T06:55:47;1.60;99.90
1948;DHT22;974;52.400;9.818;2023-02-14T06:58:13;1.60;99.90
1948;DHT22;974;52.400;9.818;2023-02-14T07:00:39;1.60;99.90
1948;DHT22;974;52.400;9.818;2023-02-14T07:03:05;1.60;99.90
1948;DHT22;974;52.400;9.818;2023-02-14T07:05:31;1.60;99.90
1948;DHT22;974;52.400;9.818;2023-02-14T07:07:57;1.60;99.90
1948;DHT22;974;52.400;9.818;2023-02-14T07:10:23;1.50;99.90
1948;DHT22;974;52.400;9.818;2023-02-14T07:12:48;1.50;99.90
1948;DHT22;974;52.400;9.818;2023-02-14T07:15:14;1.60;99.90
1948;DHT22;974;52.400;9.818;2023-02-14T07:17:40;1.60;99.90
1948;DHT22;974;52.400;9.818;2023-02-14T07:20:07;1.60;99.90
1948;DHT22;974;52.400;9.818;2023-02-14T07:22:33;1.60;99.90
1948;DHT22;974;52.400;9.818;2023-02-14T07:24:59;1.60;99.90
1948;DHT22;974;52.400;9.818;2023-02-14T07:27:25;1.70;99.90
1948;DHT22;974;52.400;9.818;2023-02-14T07:29:50;1.70;99.90
1948;DHT22;974;52.400;9.818;2023-02-14T07:32:16;1.70;99.90
1948;DHT22;974;52.400;9.818;2023-02-14T07:34:41;1.70;99.90
1948;DHT22;974;52.400;9.818;2023-02-14T07:37:07;1.80;99.90
1948;DHT22;974;52.400;9.818;2023-02-14T07:39:33;1.70;99.90
1948;DHT22;974;52.400;9.818;2023-02-14T07:41:58;1.80;99.90
1948;DHT22;974;52.400;9.818;2023-02-14T07:44:24;1.80;99.90
1948;DHT22;974;52.400;9.818;2023-02-14T07:46:49;1.80;99.90
1948;DHT22;974;52.400;9.818;2023-02-14T07:49:15;1.80;99.90
1948;DHT22;974;52.400;9.818;2023-02-14T07:51:40;1.90;99.90
1948;DHT22;974;52.400;9.818;2023-02-14T07:54:06;1.90;99.90
1948;DHT22;974;52.400;9.818;2023-02-14T07:56:31;1.90;99.90
1948;DHT22;974;52.400;9.818;2023-02-14T07:58:57;2.00;99.90
1948;DHT22;974;52.400;9.818;2023-02-14T08:01:22;1.80;99.90
1948;DHT22;974;52.400;9.818;2023-02-14T08:03:48;2.10;99.90
1948;DHT22;974;52.400;9.818;2023-02-14T08:06:18;2.00;99.90
1948;DHT22;974;52.400;9.818;2023-02-14T08:08:44;2.00;99.90
1948;DHT22;974;52.400;9.818;2023-02-14T08:11:10;2.10;99.90
1948;DHT22;974;52.400;9.818;2023-02-14T08:13:36;2.10;99.90
1948;DHT22;974;52.400;9.818;2023-02-14T08:16:02;2.20;99.90
1948;DHT22;974;52.400;9.818;2023-02-14T08:18:36;2.20;99.90
1948;DHT22;974;52.400;9.818;2023-02-14T08:21:03;2.30;99.90
1948;DHT22;974;52.400;9.818;2023-02-14T08:23:30;2.30;99.90
1948;DHT22;974;52.400;9.818;2023-02-14T08:25:56;2.40;99.90
1948;DHT22;974;52.400;9.818;2023-02-14T08:28:22;2.40;99.90
1948;DHT22;974;52.400;9.818;2023-02-14T08:30:48;2.50;99.90
1948;DHT22;974;52.400;9.818;2023-02-14T08:33:14;2.60;99.90
1948;DHT22;974;52.400;9.818;2023-02-14T08:35:39;2.60;99.90
1948;DHT22;974;52.400;9.818;2023-02-14T08:38:05;2.60;99.90
1948;DHT22;974;52.400;9.818;2023-02-14T08:40:31;2.70;99.90
1948;DHT22;974;52.400;9.818;2023-02-14T08:42:57;2.80;99.90
1948;DHT22;974;52.400;9.818;2023-02-14T08:45:23;2.90;99.90
1948;DHT22;974;52.400;9.818;2023-02-14T08:47:48;2.90;99.90
1948;DHT22;974;52.400;9.818;2023-02-14T08:50:15;3.00;99.90
1948;DHT22;974;52.400;9.818;2023-02-14T08:52:42;3.10;99.90
1948;DHT22;974;52.400;9.818;2023-02-14T08:55:08;3.10;99.90
1948;DHT22;974;52.400;9.818;2023-02-14T08:57:34;3.20;99.90
1948;DHT22;974;52.400;9.818;2023-02-14T08:59:59;3.30;99.90
1948;DHT22;974;52.400;9.818;2023-02-14T09:02:25;3.40;99.90
1948;DHT22;974;52.400;9.818;2023-02-14T09:04:50;3.40;99.90
1948;DHT22;974;52.400;9.818;2023-02-14T09:07:16;3.50;99.90
1948;DHT22;974;52.400;9.818;2023-02-14T09:09:41;3.60;99.90
1948;DHT22;974;52.400;9.818;2023-02-14T09:12:08;3.70;99.90
1948;DHT22;974;52.400;9.818;2023-02-14T09:14:38;3.80;99.90
1948;DHT22;974;52.400;9.818;2023-02-14T09:17:04;3.90;99.90
1948;DHT22;974;52.400;9.818;2023-02-14T09:19:34;4.00;99.90
1948;DHT22;974;52.400;9.818;2023-02-14T09:22:01;4.00;99.90
1948;DHT22;974;52.400;9.818;2023-02-14T09:24:28;4.10;99.90
1948;DHT22;974;52.400;9.818;2023-02-14T09:26:54;4.20;99.90
1948;DHT22;974;52.400;9.818;2023-02-14T09:29:21;4.30;99.90
1948;DHT22;974;52.400;9.818;2023-02-14T09:31:47;4.40;99.90
1948;DHT22;974;52.400;9.818;2023-02-14T09:34:13;4.50;99.90
1948;DHT22;974;52.400;9.818;2023-02-14T09:36:57;4.60;99.90
1948;DHT22;974;52.400;9.818;2023-02-14T09:39:22;4.60;99.90
1948;DHT22;974;52.400;9.818;2023-02-14T09:44:33;4.80;99.90
1948;DHT22;974;52.400;9.818;2023-02-14T09:49:40;5.00;99.90
1948;DHT22;974;52.400;9.818;2023-02-14T09:52:11;5.10;99.90
1948;DHT22;974;52.400;9.818;2023-02-14T09:54:38;5.20;99.90
1948;DHT22;974;52.400;9.818;2023-02-14T09:57:16;5.30;99.90
1948;DHT22;974;52.400;9.818;2023-02-14T09:59:52;5.40;99.90
1948;DHT22;974;52.400;9.818;2023-02-14T10:07:44;5.70;99.90
1948;DHT22;974;52.400;9.818;2023-02-14T10:10:25;5.80;99.90
1948;DHT22;974;52.400;9.818;2023-02-14T10:12:55;5.90;99.90
1948;DHT22;974;52.400;9.818;2023-02-14T10:15:32;6.00;99.90
1948;DHT22;974;52.400;9.818;2023-02-14T10:20:40;6.20;99.90
1948;DHT22;974;52.400;9.818;2023-02-14T10:23:31;6.30;99.90
1948;DHT22;974;52.400;9.818;2023-02-14T10:26:07;6.50;99.90
1948;DHT22;974;52.400;9.818;2023-02-14T10:28:39;6.60;99.90
1948;DHT22;974;52.400;9.818;2023-02-14T10:33:53;6.80;99.90
1948;DHT22;974;52.400;9.818;2023-02-14T10:36:35;6.90;99.90
1948;DHT22;974;52.400;9.818;2023-02-14T10:39:47;7.00;99.90
1948;DHT22;974;52.400;9.818;2023-02-14T10:42:40;7.20;99.90
1948;DHT22;974;52.400;9.818;2023-02-14T10:48:04;7.40;99.90
1948;DHT22;974;52.400;9.818;2023-02-14T10:50:46;7.50;99.90
1948;DHT22;974;52.400;9.818;2023-02-14T10:53:26;7.70;99.90
1948;DHT22;974;52.400;9.818;2023-02-14T10:56:07;7.70;99.90
1948;DHT22;974;52.400;9.818;2023-02-14T10:58:37;7.90;99.90
1948;DHT22;974;52.400;9.818;2023-02-14T11:01:11;7.90;99.90
1948;DHT22;974;52.400;9.818;2023-02-14T11:03:39;8.10;99.90
1948;DHT22;974;52.400;9.818;2023-02-14T11:06:06;8.20;99.90
1948;DHT22;974;52.400;9.818;2023-02-14T11:08:35;8.20;99.90
1948;DHT22;974;52.400;9.818;2023-02-14T11:11:20;8.40;99.90
1948;DHT22;974;52.400;9.818;2023-02-14T11:13:48;8.50;99.90
1948;DHT22;974;52.400;9.818;2023-02-14T11:16:35;8.50;99.90
1948;DHT22;974;52.400;9.818;2023-02-14T11:19:22;8.70;99.90
1948;DHT22;974;52.400;9.818;2023-02-14T11:21:49;8.80;99.90
1948;DHT22;974;52.400;9.818;2023-02-14T11:24:25;8.90;99.90
1948;DHT22;974;52.400;9.818;2023-02-14T11:26:53;9.00;99.90
1948;DHT22;974;52.400;9.818;2023-02-14T11:32:14;9.20;99.90
1948;DHT22;974;52.400;9.818;2023-02-14T11:34:45;9.30;99.90
1948;DHT22;974;52.400;9.818;2023-02-14T11:39:48;9.60;99.90
1948;DHT22;974;52.400;9.818;2023-02-14T11:42:41;9.70;99.90
1948;DHT22;974;52.400;9.818;2023-02-14T11:45:25;9.80;99.90
1948;DHT22;974;52.400;9.818;2023-02-14T11:48:13;9.90;99.90
1948;DHT22;974;52.400;9.818;2023-02-14T11:50:40;10.00;99.90
1948;DHT22;974;52.400;9.818;2023-02-14T11:53:10;10.10;99.90
1948;DHT22;974;52.400;9.818;2023-02-14T11:55:37;10.30;99.90
1948;DHT22;974;52.400;9.818;2023-02-14T11:58:05;10.40;99.90
1948;DHT22;974;52.400;9.818;2023-02-14T12:00:31;10.50;99.90
1948;DHT22;974;52.400;9.818;2023-02-14T12:02:58;10.60;99.90
1948;DHT22;974;52.400;9.818;2023-02-14T12:05:29;10.70;99.90
1948;DHT22;974;52.400;9.818;2023-02-14T12:07:57;10.80;99.90
1948;DHT22;974;52.400;9.818;2023-02-14T12:10:28;10.90;99.90
1948;DHT22;974;52.400;9.818;2023-02-14T12:18:23;12.80;99.90
1948;DHT22;974;52.400;9.818;2023-02-14T12:21:17;18.80;99.90
1948;DHT22;974;52.400;9.818;2023-02-14T12:24:04;22.80;99.90
1948;DHT22;974;52.400;9.818;2023-02-14T12:26:31;25.80;99.90
1948;DHT22;974;52.400;9.818;2023-02-14T12:29:23;23.30;99.90
1948;DHT22;974;52.400;9.818;2023-02-14T12:31:52;21.50;99.90
1948;DHT22;974;52.400;9.818;2023-02-14T12:34:19;24.40;99.90
1948;DHT22;974;52.400;9.818;2023-02-14T12:37:15;27.80;99.90
1948;DHT22;974;52.400;9.818;2023-02-14T12:42:46;29.50;89.80
1948;DHT22;974;52.400;9.818;2023-02-14T12:48:52;32.70;68.10
1948;DHT22;974;52.400;9.818;2023-02-14T12:51:41;28.60;58.30
1948;DHT22;974;52.400;9.818;2023-02-14T12:56:58;22.10;67.50
1948;DHT22;974;52.400;9.818;2023-02-14T13:21:36;28.50;87.10
1948;DHT22;974;52.400;9.818;2023-02-14T13:24:25;31.00;76.90
1948;DHT22;974;52.400;9.818;2023-02-14T13:26:55;31.40;68.10
1948;DHT22;974;52.400;9.818;2023-02-14T13:29:23;32.90;63.30
1948;DHT22;974;52.400;9.818;2023-02-14T13:31:55;32.90;58.60
1948;DHT22;974;52.400;9.818;2023-02-14T13:34:29;32.40;55.50
1948;DHT22;974;52.400;9.818;2023-02-14T13:36:58;32.90;56.50
1948;DHT22;974;52.400;9.818;2023-02-14T13:39:31;32.80;54.50
1948;DHT22;974;52.400;9.818;2023-02-14T13:41:58;33.90;51.90
1948;DHT22;974;52.400;9.818;2023-02-14T13:44:47;31.10;50.00
1948;DHT22;974;52.400;9.818;2023-02-14T13:47:20;27.40;52.30
1948;DHT22;974;52.400;9.818;2023-02-14T13:49:50;24.50;55.90
1948;DHT22;974;52.400;9.818;2023-02-14T13:52:41;23.00;59.20
1948;DHT22;974;52.400;9.818;2023-02-14T13:55:20;21.90;62.70
1948;DHT22;974;52.400;9.818;2023-02-14T13:58:00;20.60;66.10
1948;DHT22;974;52.400;9.818;2023-02-14T14:00:44;20.00;69.00
1948;DHT22;974;52.400;9.818;2023-02-14T14:06:06;19.40;71.90
1948;DHT22;974;52.400;9.818;2023-02-14T14:11:00;19.10;73.50
1948;DHT22;974;52.400;9.818;2023-02-14T14:16:25;18.90;75.60
1948;DHT22;974;52.400;9.818;2023-02-14T14:18:54;18.20;76.40
1948;DHT22;974;52.400;9.818;2023-02-14T14:21:28;18.40;78.00
1948;DHT22;974;52.400;9.818;2023-02-14T14:24:22;18.20;78.90
1948;DHT22;974;52.400;9.818;2023-02-14T14:27:03;17.50;81.20
1948;DHT22;974;52.400;9.818;2023-02-14T14:29:38;17.20;82.70
1948;DHT22;974;52.400;9.818;2023-02-14T14:32:15;16.90;83.80
1948;DHT22;974;52.400;9.818;2023-02-14T14:34:51;16.60;85.30
1948;DHT22;974;52.400;9.818;2023-02-14T14:37:25;16.40;86.90
1948;DHT22;974;52.400;9.818;2023-02-14T14:39:54;15.80;88.40
1948;DHT22;974;52.400;9.818;2023-02-14T14:42:23;15.40;90.20
1948;DHT22;974;52.400;9.818;2023-02-14T14:44:56;15.10;90.90
1948;DHT22;974;52.400;9.818;2023-02-14T14:47:25;14.80;91.70
1948;DHT22;974;52.400;9.818;2023-02-14T14:49:53;14.70;92.40
1948;DHT22;974;52.400;9.818;2023-02-14T14:54:55;14.10;94.20
1948;DHT22;974;52.400;9.818;2023-02-14T14:57:20;13.80;95.00
1948;DHT22;974;52.400;9.818;2023-02-14T14:59:46;13.70;95.80
1948;DHT22;974;52.400;9.818;2023-02-14T15:02:26;13.60;96.40
1948;DHT22;974;52.400;9.818;2023-02-14T15:04:52;13.40;97.20
1948;DHT22;974;52.400;9.818;2023-02-14T15:07:27;13.20;97.90
1948;DHT22;974;52.400;9.818;2023-02-14T15:09:57;13.00;98.70
1948;DHT22;974;52.400;9.818;2023-02-14T15:12:23;12.90;99.50
1948;DHT22;974;52.400;9.818;2023-02-14T15:15:10;12.70;99.90
1948;DHT22;974;52.400;9.818;2023-02-14T15:17:37;12.50;99.90
1948;DHT22;974;52.400;9.818;2023-02-14T15:20:12;12.40;99.90
1948;DHT22;974;52.400;9.818;2023-02-14T15:25:11;12.10;99.90
1948;DHT22;974;52.400;9.818;2023-02-14T15:27:40;12.00;99.90
1948;DHT22;974;52.400;9.818;2023-02-14T15:32:45;11.90;99.90
1948;DHT22;974;52.400;9.818;2023-02-14T15:35:14;11.80;99.90
1948;DHT22;974;52.400;9.818;2023-02-14T15:37:41;11.70;99.90
1948;DHT22;974;52.400;9.818;2023-02-14T15:40:14;11.70;99.90
1948;DHT22;974;52.400;9.818;2023-02-14T15:42:42;11.60;99.90
1948;DHT22;974;52.400;9.818;2023-02-14T15:45:20;11.50;99.90
1948;DHT22;974;52.400;9.818;2023-02-14T15:47:50;11.50;99.90
1948;DHT22;974;52.400;9.818;2023-02-14T15:50:22;11.40;99.90
1948;DHT22;974;52.400;9.818;2023-02-14T15:52:51;11.20;99.90
1948;DHT22;974;52.400;9.818;2023-02-14T15:55:20;11.20;99.90
1948;DHT22;974;52.400;9.818;2023-02-14T15:57:53;11.10;99.90
1948;DHT22;974;52.400;9.818;2023-02-14T16:00:20;11.00;99.90
1948;DHT22;974;52.400;9.818;2023-02-14T16:02:54;10.80;99.90
1948;DHT22;974;52.400;9.818;2023-02-14T16:05:23;10.70;99.90
1948;DHT22;974;52.400;9.818;2023-02-14T16:07:59;10.60;99.90
1948;DHT22;974;52.400;9.818;2023-02-14T16:13:05;10.30;99.90
1948;DHT22;974;52.400;9.818;2023-02-14T16:15:38;10.20;99.90
1948;DHT22;974;52.400;9.818;2023-02-14T16:18:17;10.20;99.90
1948;DHT22;974;52.400;9.818;2023-02-14T16:20:44;10.00;99.90
1948;DHT22;974;52.400;9.818;2023-02-14T16:23:22;9.90;99.90
1948;DHT22;974;52.400;9.818;2023-02-14T16:25:49;9.80;99.90
1948;DHT22;974;52.400;9.818;2023-02-14T16:28:15;9.70;99.90
1948;DHT22;974;52.400;9.818;2023-02-14T16:30:42;9.60;99.90
1948;DHT22;974;52.400;9.818;2023-02-14T16:33:23;9.50;99.90
1948;DHT22;974;52.400;9.818;2023-02-14T16:35:49;9.40;99.90
1948;DHT22;974;52.400;9.818;2023-02-14T16:38:17;9.30;99.90
1948;DHT22;974;52.400;9.818;2023-02-14T16:40:45;9.30;99.90
1948;DHT22;974;52.400;9.818;2023-02-14T16:43:13;9.20;99.90
1948;DHT22;974;52.400;9.818;2023-02-14T16:45:39;9.10;99.90
1948;DHT22;974;52.400;9.818;2023-02-14T16:48:05;9.00;99.90
1948;DHT22;974;52.400;9.818;2023-02-14T16:50:30;8.90;99.90
1948;DHT22;974;52.400;9.818;2023-02-14T16:52:56;8.80;99.90
1948;DHT22;974;52.400;9.818;2023-02-14T16:55:22;8.70;99.90
1948;DHT22;974;52.400;9.818;2023-02-14T16:57:51;8.70;99.90
1948;DHT22;974;52.400;9.818;2023-02-14T17:00:17;8.50;99.90
1948;DHT22;974;52.400;9.818;2023-02-14T17:02:43;8.50;99.90
1948;DHT22;974;52.400;9.818;2023-02-14T17:05:09;8.40;99.90
1948;DHT22;974;52.400;9.818;2023-02-14T17:07:34;8.30;99.90
1948;DHT22;974;52.400;9.818;2023-02-14T17:10:06;8.30;99.90
1948;DHT22;974;52.400;9.818;2023-02-14T17:12:35;8.10;99.90
1948;DHT22;974;52.400;9.818;2023-02-14T17:15:11;8.00;99.90
1948;DHT22;974;52.400;9.818;2023-02-14T17:17:37;8.00;99.90
1948;DHT22;974;52.400;9.818;2023-02-14T17:20:04;8.00;99.90
1948;DHT22;974;52.400;9.818;2023-02-14T17:22:32;7.90;99.90
1948;DHT22;974;52.400;9.818;2023-02-14T17:24:58;7.90;99.90
1948;DHT22;974;52.400;9.818;2023-02-14T17:27:24;7.90;99.90
1948;DHT22;974;52.400;9.818;2023-02-14T17:29:49;7.80;99.90
1948;DHT22;974;52.400;9.818;2023-02-14T17:32:16;7.80;99.90
1948;DHT22;974;52.400;9.818;2023-02-14T17:34:42;7.70;99.90
1948;DHT22;974;52.400;9.818;2023-02-14T17:37:07;7.60;99.90
1948;DHT22;974;52.400;9.818;2023-02-14T17:39:33;7.50;99.90
1948;DHT22;974;52.400;9.818;2023-02-14T17:41:58;7.50;99.90
1948;DHT22;974;52.400;9.818;2023-02-14T17:44:24;7.30;99.90
1948;DHT22;974;52.400;9.818;2023-02-14T17:46:50;7.30;99.90
1948;DHT22;974;52.400;9.818;2023-02-14T17:49:18;7.20;99.90
1948;DHT22;974;52.400;9.818;2023-02-14T17:51:44;7.10;99.90
1948;DHT22;974;52.400;9.818;2023-02-14T17:54:09;7.10;99.90
1948;DHT22;974;52.400;9.818;2023-02-14T17:56:36;7.00;99.90
1948;DHT22;974;52.400;9.818;2023-02-14T17:59:01;7.00;99.90
1948;DHT22;974;52.400;9.818;2023-02-14T18:01:28;7.00;99.90
1948;DHT22;974;52.400;9.818;2023-02-14T18:03:55;7.00;99.90
1948;DHT22;974;52.400;9.818;2023-02-14T18:06:21;7.00;99.90
1948;DHT22;974;52.400;9.818;2023-02-14T18:08:49;6.90;99.90
1948;DHT22;974;52.400;9.818;2023-02-14T18:11:17;6.80;99.90
1948;DHT22;974;52.400;9.818;2023-02-14T18:13:43;6.80;99.90
1948;DHT22;974;52.400;9.818;2023-02-14T18:16:11;6.80;99.90
1948;DHT22;974;52.400;9.818;2023-02-14T18:18:36;6.80;99.90
1948;DHT22;974;52.400;9.818;2023-02-14T18:21:04;6.80;99.90
1948;DHT22;974;52.400;9.818;2023-02-14T18:23:30;6.80;99.90
1948;DHT22;974;52.400;9.818;2023-02-14T18:25:58;6.70;99.90
1948;DHT22;974;52.400;9.818;2023-02-14T18:28:26;6.70;99.90
1948;DHT22;974;52.400;9.818;2023-02-14T18:30:53;6.70;99.90
1948;DHT22;974;52.400;9.818;2023-02-14T18:33:19;6.50;99.90
1948;DHT22;974;52.400;9.818;2023-02-14T18:35:45;6.50;99.90
1948;DHT22;974;52.400;9.818;2023-02-14T18:38:11;6.40;99.90
1948;DHT22;974;52.400;9.818;2023-02-14T18:40:37;6.40;99.90
1948;DHT22;974;52.400;9.818;2023-02-14T18:43:03;6.40;99.90
1948;DHT22;974;52.400;9.818;2023-02-14T18:45:29;6.30;99.90